Impacts TAF Board
For situational awareness. Not to be used for flight planning purposes.
IDs:

KGTR - Golden Triangle Arpt, MS, US

Issued at 1731 UTC 02 Oct 2022
Updated at 2252 UTC 02 Oct 2022
Potential Impact None Slight Moderate High
Time2156Z 02/23Z 03/00Z 03/01Z 03/02Z 03/03Z 03/04Z 03/05Z 03/06Z 03/07Z 03/08Z 03/09Z 03/10Z 03/11Z>>
Type OBS PRVL PRVL PRVL PRVL PRVL PRVL PRVL PRVL PRVL PRVL PRVL PRVL PRVL
VIS 10 >6 >6 >6 >6 >6 >6 >6 >6 >6 >6 >6 >6 >6
CIG -- -- -- -- -- -- -- -- -- -- -- -- -- --
Cover CLR SKC SKC SKC SKC SKC SKC SKC SKC SKC SKC SKC SKC SKC
FltCat VFR VFR VFR VFR VFR VFR VFR VFR VFR VFR VFR VFR VFR VFR
WX -- -- -- -- -- -- -- -- -- -- -- -- -- --
WDir 360 10 10 10 10 10 10 10 10 10 10 10 10 10
WSpd 10 11 11 11 11 11 11 11 11 11 11 11 11 11
WGst -- -- -- -- -- -- -- -- -- -- -- -- -- --
WSHgt -- -- -- -- -- -- -- -- -- -- -- -- -- --
WSDir -- -- -- -- -- -- -- -- -- -- -- -- -- --
WSSpd -- -- -- -- -- -- -- -- -- -- -- -- -- --
Raw TAF
KGTR 021731Z 0218/0318 01011KT P6SM SKC

Raw METAR
KGTR 022156Z 36010KT 10SM CLR 27/10 A3007 RMK AO2 SLP187 T02720100
KGTR 022056Z 01014KT 10SM CLR 28/10 A3006 RMK AO2 SLP186 T02780100 56016
KGTR 021956Z 34009KT 10SM CLR 27/10 A3007 RMK AO2 SLP188 T02720100

METAR Board
Radar Display
Forecast Discussion
For situational awareness. Not to be used for flight planning purposes.